createdAt,value
2019-02-20T07:44:49.862Z,0.00
2019-02-20T07:46:49.988Z,0.00
2019-02-20T07:48:49.966Z,0.27
2019-02-20T07:50:49.984Z,0.32
2019-02-20T07:52:50.233Z,0.47
2019-02-20T07:54:50.327Z,0.55
2019-02-20T07:56:49.770Z,0.59
2019-02-20T07:58:49.864Z,0.66
2019-02-20T08:00:50.188Z,0.66
2019-02-20T08:02:50.323Z,0.73
2019-02-20T08:04:49.764Z,0.77
2019-02-20T08:06:50.199Z,0.80
2019-02-20T08:08:50.286Z,0.91
2019-02-20T08:10:50.486Z,0.95
2019-02-20T08:12:50.498Z,1.05
2019-02-20T08:14:49.770Z,1.12
2019-02-20T08:16:53.155Z,1.18
2019-02-20T08:18:50.174Z,1.17
2019-02-20T08:20:50.266Z,1.20
2019-02-20T08:22:50.295Z,1.21
2019-02-20T08:24:50.375Z,1.22
2019-02-20T08:26:50.428Z,1.29
2019-02-20T08:28:50.467Z,1.34
2019-02-20T08:30:50.463Z,1.47
2019-02-20T08:32:50.662Z,1.61
2019-02-20T08:34:50.119Z,1.64
2019-02-20T08:36:50.192Z,1.71
2019-02-20T08:38:50.231Z,1.74
2019-02-20T08:40:50.267Z,1.86
2019-02-20T08:42:50.373Z,1.87
2019-02-20T08:44:50.387Z,1.85
2019-02-20T08:46:50.530Z,1.93
2019-02-20T08:48:50.606Z,2.02
2019-02-20T08:50:50.650Z,2.06
2019-02-20T08:52:49.781Z,2.29
2019-02-20T08:54:49.774Z,2.31
2019-02-20T08:56:49.902Z,2.39
2019-02-20T08:58:49.979Z,2.71
2019-02-20T09:00:50.111Z,2.82
2019-02-20T09:02:50.121Z,2.87
2019-02-20T09:04:50.282Z,2.96
2019-02-20T09:06:50.381Z,3.04
2019-02-20T09:08:50.377Z,3.18
2019-02-20T09:10:50.420Z,3.35
2019-02-20T09:12:50.403Z,3.44
2019-02-20T09:14:50.472Z,3.52
2019-02-20T09:16:49.751Z,3.81
2019-02-20T09:18:49.890Z,3.92
2019-02-20T09:20:49.861Z,3.92
2019-02-20T09:22:49.909Z,3.91
2019-02-20T09:24:49.913Z,4.20
2019-02-20T09:26:50.099Z,4.55
2019-02-20T09:28:50.065Z,4.64
2019-02-20T09:30:50.123Z,4.68
2019-02-20T09:32:50.143Z,4.80
2019-02-20T09:34:50.611Z,4.79
2019-02-20T09:36:49.753Z,4.79
2019-02-20T09:38:49.809Z,4.72
2019-02-20T09:40:49.803Z,4.84
2019-02-20T09:42:49.860Z,5.03
2019-02-20T09:44:49.857Z,5.31
2019-02-20T09:46:50.111Z,5.38
2019-02-20T09:48:50.137Z,5.47
2019-02-20T09:50:50.162Z,5.62
2019-02-20T09:52:53.196Z,5.67
2019-02-20T09:54:50.266Z,5.79
2019-02-20T09:56:50.337Z,5.83
2019-02-20T09:58:50.480Z,5.84
2019-02-20T10:00:50.566Z,5.92
2019-02-20T10:02:50.484Z,5.89
2019-02-20T10:04:49.959Z,5.85
2019-02-20T10:06:50.264Z,5.85
2019-02-20T10:08:50.377Z,5.94
2019-02-20T10:10:50.572Z,6.11
2019-02-20T10:12:50.810Z,6.31
2019-02-20T10:14:50.012Z,7.04
2019-02-20T10:16:50.426Z,7.2
2019-02-20T10:18:50.653Z,7.4
2019-02-20T10:20:49.993Z,7.5
2019-02-20T10:22:50.108Z,7.5
2019-02-20T10:24:50.245Z,7.6
2019-02-20T10:26:50.524Z,7.7
2019-02-20T10:28:50.655Z,7.8
2019-02-20T10:30:50.045Z,7.9
2019-02-20T10:32:50.395Z,7.9
2019-02-20T10:34:49.874Z,8.0
2019-02-20T10:36:50.179Z,8.1
2019-02-20T10:38:50.697Z,8.2
2019-02-20T10:40:50.586Z,8.2
2019-02-20T10:42:49.930Z,8.2
2019-02-20T10:44:50.090Z,8.2
2019-02-20T10:46:50.362Z,8.2
2019-02-20T10:48:50.506Z,8.3
2019-02-20T10:50:50.803Z,8.3
2019-02-20T10:52:50.071Z,8.3
2019-02-20T10:54:58.448Z,8.3
2019-02-20T10:56:50.771Z,8.3
2019-02-20T10:58:49.880Z,8.3
2019-02-20T11:00:50.113Z,8.4
2019-02-20T11:02:50.322Z,8.4
2019-02-20T11:04:50.630Z,8.4
2019-02-20T11:06:49.982Z,8.50
2019-02-20T11:08:51.012Z,8.24
2019-02-20T11:10:50.251Z,8.31
2019-02-20T11:12:50.683Z,8.5
2019-02-20T11:14:49.896Z,8.6
2019-02-20T11:16:50.210Z,8.6
2019-02-20T11:18:50.428Z,8.7
2019-02-20T11:20:50.698Z,8.7
2019-02-20T11:22:49.872Z,8.8
2019-02-20T11:24:49.997Z,8.8
2019-02-20T11:26:55.638Z,8.9
2019-02-20T11:28:49.908Z,8.9
2019-02-20T11:30:50.132Z,9.1
2019-02-20T11:32:50.338Z,9.1
2019-02-20T11:34:50.810Z,9.2
2019-02-20T11:36:50.284Z,9.3
2019-02-20T11:38:50.393Z,9.2
2019-02-20T11:40:50.684Z,9.2
2019-02-20T11:42:50.871Z,9.3
2019-02-20T11:44:50.169Z,9.3
2019-02-20T11:46:50.555Z,9.3
2019-02-20T11:48:50.796Z,9.3
2019-02-20T11:50:49.957Z,9.3
2019-02-20T11:52:50.106Z,9.3
2019-02-20T11:54:50.411Z,9.3
2019-02-20T11:56:50.770Z,9.3
2019-02-20T11:58:50.026Z,9.4
2019-02-20T12:00:50.133Z,9.4
2019-02-20T12:02:50.459Z,9.5
2019-02-20T12:04:50.162Z,9.6
2019-02-20T12:06:50.387Z,9.6
2019-02-20T12:08:50.546Z,9.6
2019-02-20T12:10:50.770Z,9.7
2019-02-20T12:12:49.966Z,9.8
2019-02-20T12:14:50.206Z,9.9
2019-02-20T12:16:50.438Z,9.9
2019-02-20T12:18:50.649Z,10.1
2019-02-20T12:20:49.887Z,10.2
2019-02-20T12:22:50.197Z,10.4
2019-02-20T12:24:50.374Z,10.5
2019-02-20T12:26:50.566Z,10.5
2019-02-20T12:28:50.685Z,10.6
2019-02-20T12:30:49.975Z,10.7
2019-02-20T12:32:50.136Z,11.0
2019-02-20T12:34:50.488Z,11.1
2019-02-20T12:36:50.756Z,11.1
2019-02-20T12:38:50.041Z,11.2
2019-02-20T12:40:51.420Z,11.3
2019-02-20T12:42:50.558Z,11.3
2019-02-20T12:44:50.863Z,11.4
2019-02-20T12:46:50.244Z,11.4
2019-02-20T12:48:50.413Z,11.4
2019-02-20T12:50:50.597Z,11.5
2019-02-20T12:52:50.830Z,11.5
2019-02-20T12:54:50.129Z,11.6
2019-02-20T12:56:50.470Z,11.7
2019-02-20T12:58:50.615Z,11.41
2019-02-20T13:00:50.844Z,11.15
2019-02-20T13:02:50.249Z,10.81
2019-02-20T13:04:49.993Z,11.24
2019-02-20T13:07:00.136Z,11.61
2019-02-20T13:08:50.323Z,11.8
2019-02-20T13:10:50.535Z,11.8
2019-02-20T13:12:50.738Z,11.8
2019-02-20T13:14:50.056Z,11.8
2019-02-20T13:16:50.375Z,11.8
2019-02-20T13:18:50.546Z,11.8
2019-02-20T13:20:50.858Z,11.73
2019-02-20T13:22:50.084Z,11.72
2019-02-20T13:24:50.318Z,11.68
2019-02-20T13:26:53.766Z,11.37
2019-02-20T13:28:49.999Z,10.84
2019-02-20T13:30:50.238Z,10.48
2019-02-20T13:32:51.522Z,10.26
2019-02-20T13:34:50.037Z,10.18
2019-02-20T13:36:50.542Z,10.30
2019-02-20T13:38:50.882Z,10.31
2019-02-20T13:40:50.144Z,10.24
2019-02-20T13:42:50.458Z,10.21
2019-02-20T13:44:50.739Z,10.17
2019-02-20T13:46:50.192Z,9.99
2019-02-20T13:48:50.558Z,10.05
2019-02-20T13:50:50.005Z,10.06
2019-02-20T13:52:53.197Z,10.19
2019-02-20T13:54:51.689Z,10.25
2019-02-20T13:56:50.702Z,10.18
2019-02-20T13:58:50.001Z,10.05
2019-02-20T14:00:50.249Z,10.05
2019-02-20T14:02:50.467Z,10.14
2019-02-20T14:04:50.162Z,10.21
2019-02-20T14:06:50.550Z,10.29
2019-02-20T14:08:50.914Z,10.43
2019-02-20T14:10:50.137Z,10.46
2019-02-20T14:12:50.522Z,10.68
2019-02-20T14:14:50.730Z,10.68
2019-02-20T14:16:50.138Z,10.92
2019-02-20T14:18:51.834Z,10.95
2019-02-20T14:20:50.077Z,11.08
2019-02-20T14:22:50.330Z,11.04
2019-02-20T14:24:51.664Z,10.98
2019-02-20T14:26:50.327Z,11.04
2019-02-20T14:28:50.604Z,11.08
2019-02-20T14:30:50.920Z,10.98
2019-02-20T14:32:51.712Z,11.26
2019-02-20T14:34:50.904Z,11.40
2019-02-20T14:36:50.285Z,11.32
2019-02-20T14:38:50.611Z,10.97
2019-02-20T14:40:50.012Z,10.99
2019-02-20T14:42:50.213Z,10.99
2019-02-20T14:44:50.404Z,10.73
2019-02-20T14:46:50.848Z,10.65
2019-02-20T14:48:50.044Z,10.63
2019-02-20T14:50:50.320Z,10.65
2019-02-20T14:52:50.566Z,10.54
2019-02-20T14:54:50.832Z,10.51
2019-02-20T14:56:50.357Z,10.53
2019-02-20T14:58:50.663Z,10.79
2019-02-20T15:00:49.984Z,10.91
2019-02-20T15:02:51.631Z,11.2
2019-02-20T15:04:50.942Z,11.2
2019-02-20T15:06:50.348Z,11.2
2019-02-20T15:08:50.641Z,11.2
2019-02-20T15:10:52.452Z,11.2
2019-02-20T15:12:50.249Z,11.2
2019-02-20T15:14:50.541Z,11.15
2019-02-20T15:16:49.981Z,10.93
2019-02-20T15:18:50.267Z,10.97
2019-02-20T15:20:50.644Z,11.08
2019-02-20T15:22:50.074Z,10.95
2019-02-20T15:24:50.372Z,10.85
2019-02-20T15:26:50.716Z,10.76
2019-02-20T15:28:49.934Z,10.66
2019-02-20T15:30:50.210Z,10.49
2019-02-20T15:32:51.316Z,10.46
2019-02-20T15:34:50.717Z,10.43
2019-02-20T15:36:49.977Z,10.30
2019-02-20T15:38:50.069Z,10.07
2019-02-20T15:40:51.050Z,9.86
2019-02-20T15:42:50.539Z,9.79
2019-02-20T15:44:50.699Z,9.72
2019-02-20T15:46:49.806Z,9.68
2019-02-20T15:48:50.014Z,9.63
2019-02-20T15:50:50.607Z,9.61
2019-02-20T15:52:49.771Z,9.52
2019-02-20T15:54:49.851Z,9.51
2019-02-20T15:56:50.080Z,9.58
2019-02-20T15:58:50.158Z,9.51
2019-02-20T16:00:50.417Z,9.51
2019-02-20T16:02:50.505Z,9.52
2019-02-20T16:04:50.290Z,9.46
2019-02-20T16:06:50.585Z,9.37
2019-02-20T16:08:50.684Z,9.26
2019-02-20T16:10:50.995Z,9.22
2019-02-20T16:12:49.741Z,9.11
2019-02-20T16:14:49.818Z,9.04
2019-02-20T16:16:50.224Z,8.98
2019-02-20T16:18:50.268Z,8.91
2019-02-20T16:20:50.418Z,8.84
2019-02-20T16:22:50.458Z,8.80
2019-02-20T16:24:50.475Z,8.77
2019-02-20T16:26:49.778Z,8.71
2019-02-20T16:28:49.886Z,8.63
2019-02-20T16:30:49.904Z,8.57
2019-02-20T16:32:51.607Z,8.49
2019-02-20T16:34:50.196Z,8.44
2019-02-20T16:36:50.413Z,8.40
2019-02-20T16:38:50.508Z,8.36
2019-02-20T16:40:51.086Z,8.36
2019-02-20T16:42:50.406Z,8.23
2019-02-20T16:44:50.579Z,8.19
2019-02-20T16:46:49.873Z,8.15
2019-02-20T16:48:50.987Z,7.99
2019-02-20T16:50:50.542Z,7.82
2019-02-20T16:52:50.653Z,7.72
2019-02-20T16:54:49.783Z,7.59
2019-02-20T16:56:50.192Z,7.50
2019-02-20T16:58:50.277Z,7.37
2019-02-20T17:00:50.379Z,7.37
2019-02-20T17:02:50.443Z,7.18
2019-02-20T17:04:49.996Z,7.18
2019-02-20T17:06:50.238Z,7.01
2019-02-20T17:08:50.259Z,6.92
2019-02-20T17:10:50.258Z,6.79
2019-02-20T17:12:50.446Z,6.72
2019-02-20T17:14:50.553Z,6.60
2019-02-20T17:16:49.774Z,6.49
2019-02-20T17:18:50.498Z,6.42
2019-02-20T17:20:49.937Z,6.32
2019-02-20T17:22:49.988Z,6.23
2019-02-20T17:24:50.029Z,6.17
2019-02-20T17:26:51.092Z,6.14
2019-02-20T17:28:49.720Z,6.08
2019-02-20T17:30:49.879Z,6.04
2019-02-20T17:32:49.950Z,6.02
2019-02-20T17:34:50.362Z,6.00
2019-02-20T17:36:50.618Z,5.97
2019-02-20T17:38:50.679Z,5.94
2019-02-20T17:40:49.861Z,5.86
2019-02-20T17:42:49.885Z,5.79
2019-02-20T17:44:50.041Z,5.72
2019-02-20T17:46:50.230Z,5.69
2019-02-20T17:48:50.321Z,5.63
2019-02-20T17:50:50.379Z,5.61
2019-02-20T17:52:50.451Z,5.57
2019-02-20T17:54:50.522Z,5.55
2019-02-20T17:56:49.849Z,5.52
2019-02-20T17:58:49.867Z,5.46
2019-02-20T18:00:49.882Z,5.43
2019-02-20T18:02:49.992Z,5.40
2019-02-20T18:04:50.455Z,5.40
2019-02-20T18:06:50.642Z,5.41
2019-02-20T18:08:50.647Z,5.40
2019-02-20T18:10:50.721Z,5.40
2019-02-20T18:12:49.878Z,5.36
2019-02-20T18:14:50.056Z,5.32
2019-02-20T18:16:50.527Z,5.29
2019-02-20T18:18:50.555Z,5.29
2019-02-20T18:20:50.540Z,5.23
2019-02-20T18:22:49.753Z,5.19
2019-02-20T18:24:50.582Z,5.18
2019-02-20T18:26:50.075Z,5.17
2019-02-20T18:28:50.092Z,5.17
2019-02-20T18:30:50.162Z,5.18
2019-02-20T18:32:50.194Z,5.15
2019-02-20T18:34:50.542Z,5.12
2019-02-20T18:36:49.787Z,5.09
2019-02-20T18:38:49.914Z,5.06
2019-02-20T18:40:49.897Z,5.04
2019-02-20T18:42:49.944Z,5.02
2019-02-20T18:44:50.123Z,5.02
2019-02-20T18:46:50.429Z,5.01
2019-02-20T18:48:50.466Z,4.99
2019-02-20T18:50:50.530Z,4.96
2019-02-20T18:52:50.545Z,4.94
2019-02-20T18:54:50.624Z,4.94
2019-02-20T18:56:49.985Z,4.93
2019-02-20T18:58:50.019Z,4.88
2019-02-20T19:00:50.190Z,4.82
2019-02-20T19:02:50.273Z,4.83
2019-02-20T19:04:49.954Z,4.82
2019-02-20T19:06:50.263Z,4.76
2019-02-20T19:08:50.325Z,4.69
2019-02-20T19:10:51.332Z,4.57
2019-02-20T19:12:50.377Z,4.51
2019-02-20T19:14:50.440Z,4.40
2019-02-20T19:16:50.600Z,4.41
2019-02-20T19:18:50.542Z,4.37
2019-02-20T19:20:50.609Z,4.29
2019-02-20T19:22:50.360Z,4.19
2019-02-20T19:24:50.357Z,4.17
2019-02-20T19:26:50.520Z,4.04
2019-02-20T19:28:50.562Z,4.00
2019-02-20T19:30:50.757Z,3.94
2019-02-20T19:32:49.817Z,3.93
2019-02-20T19:34:50.390Z,3.90
2019-02-20T19:36:50.616Z,3.85
2019-02-20T19:38:50.738Z,3.79
2019-02-20T19:40:49.809Z,3.75
2019-02-20T19:42:50.039Z,3.72
2019-02-20T19:44:50.239Z,3.70
2019-02-20T19:46:50.586Z,3.66
2019-02-20T19:48:50.073Z,3.63
2019-02-20T19:50:50.108Z,3.63
2019-02-20T19:52:50.252Z,3.61
2019-02-20T19:54:50.371Z,3.63
2019-02-20T19:56:49.761Z,3.61
2019-02-20T19:58:58.208Z,3.59
2019-02-20T20:00:50.513Z,3.53
2019-02-20T20:02:50.574Z,3.50
2019-02-20T20:04:49.855Z,3.38
2019-02-20T20:06:50.100Z,3.25
2019-02-20T20:08:50.250Z,3.17
2019-02-20T20:10:50.382Z,3.07
2019-02-20T20:12:50.732Z,2.99
2019-02-20T20:14:50.418Z,2.81
2019-02-20T20:16:51.802Z,2.75
2019-02-20T20:18:50.003Z,2.66
2019-02-20T20:20:50.300Z,2.53
2019-02-20T20:22:50.335Z,2.48
2019-02-20T20:24:50.576Z,2.34
2019-02-20T20:26:49.815Z,2.24
2019-02-20T20:28:49.981Z,2.18
2019-02-20T20:30:50.123Z,2.09
2019-02-20T20:32:56.594Z,2.05
2019-02-20T20:34:50.408Z,1.99
2019-02-20T20:36:51.348Z,1.94
2019-02-20T20:38:50.378Z,1.84
2019-02-20T20:40:50.315Z,1.80
2019-02-20T20:42:52.247Z,1.78
2019-02-20T20:44:50.218Z,1.72
2019-02-20T20:46:50.865Z,1.66
2019-02-20T20:48:49.929Z,1.60
2019-02-20T20:50:50.005Z,1.57
2019-02-20T20:52:50.659Z,1.54
2019-02-20T20:54:50.626Z,1.50
2019-02-20T20:57:00.647Z,1.42
2019-02-20T20:58:50.681Z,1.39
2019-02-20T21:00:49.812Z,1.35
2019-02-20T21:02:50.541Z,1.33
2019-02-20T21:04:49.850Z,1.28
2019-02-20T21:06:50.148Z,1.22
2019-02-20T21:08:49.957Z,1.19
2019-02-20T21:10:50.080Z,1.20
2019-02-20T21:12:49.881Z,1.20
2019-02-20T21:14:49.959Z,1.18
2019-02-20T21:16:50.107Z,1.19
2019-02-20T21:18:50.037Z,1.17
2019-02-20T21:20:50.012Z,1.12
2019-02-20T21:22:50.361Z,1.10
2019-02-20T21:24:50.399Z,1.07
2019-02-20T21:26:50.679Z,1.01
2019-02-20T21:28:50.664Z,0.99
2019-02-20T21:30:49.703Z,0.90
2019-02-20T21:32:49.881Z,0.88
2019-02-20T21:34:49.893Z,0.85
2019-02-20T21:36:50.022Z,0.80
2019-02-20T21:38:50.086Z,0.77
2019-02-20T21:40:50.081Z,0.73
2019-02-20T21:42:50.153Z,0.67
2019-02-20T21:44:50.157Z,0.66
2019-02-20T21:46:50.423Z,0.67
2019-02-20T21:48:50.426Z,0.65
2019-02-20T21:50:49.850Z,0.65
2019-02-20T21:52:49.880Z,0.66
2019-02-20T21:54:49.939Z,0.64
2019-02-20T21:56:50.340Z,0.64
2019-02-20T21:58:50.518Z,0.66
2019-02-20T22:00:50.502Z,0.65
2019-02-20T22:02:50.544Z,0.63
2019-02-20T22:04:49.781Z,0.57
2019-02-20T22:06:50.115Z,0.54
2019-02-20T22:08:50.219Z,0.52
2019-02-20T22:10:50.269Z,0.49
2019-02-20T22:12:51.603Z,0.47
2019-02-20T22:14:50.589Z,0.46
2019-02-20T22:16:49.938Z,0.41
2019-02-20T22:18:49.853Z,0.35
2019-02-20T22:20:49.919Z,0.32
2019-02-20T22:22:49.985Z,0.30
2019-02-20T22:24:50.086Z,0.24
2019-02-20T22:26:50.217Z,0.24
2019-02-20T22:28:50.116Z,0.21
2019-02-20T22:30:50.121Z,0.17
2019-02-20T22:32:50.200Z,0.14
2019-02-20T22:34:50.339Z,0.12
2019-02-20T22:36:50.368Z,0.09
2019-02-20T22:38:50.422Z,0.07
2019-02-20T22:40:50.501Z,0.02
2019-02-20T22:42:50.499Z,0.00
